Time;durP1;ratioP1;P1;durP2;ratioP2;P2;SDS_P1;SDS_P2;PMS_P1;PMS_P2;Temp;Humidity;BMP_temperature;BMP_pressure;BME280_temperature;BME280_humidity;BME280_pressure;Samples;Min_cycle;Max_cycle;Signal;HPM_P1;HPM_P2
2022/09/16 00:00:24;;;;;;;30.70;8.93;;;23.40;99.90;;;;;;5022341;28;20033;-79
2022/09/16 00:03:19;;;;;;;33.78;8.15;;;23.30;99.90;;;;;;5038213;28;20662;-81
2022/09/16 00:05:49;;;;;;;40.03;9.82;;;23.20;99.90;;;;;;5042830;28;20372;-79
2022/09/16 00:08:16;;;;;;;43.78;11.10;;;23.20;99.90;;;;;;5026739;28;20053;-79
2022/09/16 00:10:59;;;;;;;33.75;8.48;;;23.20;99.90;;;;;;5040327;28;20022;-79
2022/09/16 00:16:41;;;;;;;37.45;7.90;;;23.20;99.90;;;;;;4948551;29;20046;-79
2022/09/16 00:20:35;;;;;;;31.38;7.88;;;23.30;99.90;;;;;;5044682;28;20047;-79
2022/09/16 00:23:29;;;;;;;38.47;9.07;;;23.30;99.90;;;;;;4924748;29;20048;-79
2022/09/16 00:26:11;;;;;;;35.72;8.02;;;23.30;99.90;;;;;;4927809;29;20060;-80
2022/09/16 00:28:55;;;;;;;42.08;9.25;;;23.30;99.90;;;;;;4909508;29;20032;-80
2022/09/16 00:35:13;;;;;;;37.65;9.70;;;23.40;99.90;;;;;;5028048;28;20091;-81
2022/09/16 00:37:42;;;;;;;33.70;7.80;;;23.50;99.90;;;;;;5039241;28;20052;-80
2022/09/16 00:43:23;;;;;;;30.83;8.77;;;23.40;99.90;;;;;;5032439;28;20064;-81
2022/09/16 00:45:59;;;;;;;34.55;8.85;;;23.30;99.90;;;;;;5039844;28;20103;-81
2022/09/16 00:48:39;;;;;;;35.75;8.85;;;23.30;99.90;;;;;;5039072;28;20052;-80
2022/09/16 00:51:11;;;;;;;35.42;8.13;;;23.40;99.90;;;;;;5038192;28;20076;-81
2022/09/16 00:54:10;;;;;;;27.38;8.07;;;23.30;99.90;;;;;;5039995;28;20100;-80
2022/09/16 00:57:01;;;;;;;28.02;7.70;;;23.20;99.90;;;;;;5023934;28;20021;-80
2022/09/16 01:00:24;;;;;;;;;;;;;;;;;;;;;
2022/09/16 01:12:08;;;;;;;34.63;7.65;;;23.30;99.90;;;;;;5018310;28;20045;-80
2022/09/16 01:14:53;;;;;;;35.33;10.43;;;23.20;99.90;;;;;;5032893;28;20037;-82
2022/09/16 01:17:30;;;;;;;36.03;8.75;;;23.30;99.90;;;;;;5023552;28;20073;-81
2022/09/16 01:20:08;;;;;;;34.30;8.25;;;23.30;99.90;;;;;;5021715;28;20035;-80
2022/09/16 01:22:44;;;;;;;30.95;6.90;;;23.30;99.90;;;;;;5037296;28;20304;-81
2022/09/16 01:25:35;;;;;;;31.63;8.18;;;23.30;99.90;;;;;;5038574;28;20036;-80
2022/09/16 01:28:16;;;;;;;30.83;6.65;;;23.40;99.90;;;;;;5038361;28;20095;-82
2022/09/16 01:30:55;;;;;;;24.83;7.93;;;23.30;99.90;;;;;;5016452;28;20026;-82
2022/09/16 01:33:36;;;;;;;33.55;7.20;;;23.20;99.90;;;;;;5037614;28;20394;-80
2022/09/16 01:36:09;;;;;;;27.23;7.47;;;23.20;99.90;;;;;;5039132;28;20037;-80
2022/09/16 01:38:46;;;;;;;35.90;8.77;;;23.10;99.90;;;;;;5035785;28;20026;-81
2022/09/16 01:41:28;;;;;;;30.20;9.65;;;23.10;99.90;;;;;;5038982;28;20029;-81
2022/09/16 01:44:49;;;;;;;36.28;8.38;;;23.10;99.90;;;;;;5037668;28;20029;-80
2022/09/16 01:47:44;;;;;;;34.13;8.02;;;23.10;99.90;;;;;;4998354;28;20112;-80
2022/09/16 01:50:20;;;;;;;39.63;7.63;;;23.10;99.90;;;;;;5037167;28;20024;-81
2022/09/16 01:53:05;;;;;;;32.60;6.82;;;23.10;99.90;;;;;;5032813;28;20018;-80
2022/09/16 01:56:22;;;;;;;27.67;6.55;;;23.10;99.90;;;;;;5034061;28;20032;-80
2022/09/16 01:59:45;;;;;;;29.73;7.68;;;23.20;99.90;;;;;;5022264;28;20053;-80
2022/09/16 02:06:26;;;;;;;;;;;;;;;;;;;;;
2022/09/16 02:15:26;;;;;;;32.75;7.18;;;23.40;99.90;;;;;;5039998;28;20028;-80
2022/09/16 02:18:15;;;;;;;28.58;8.25;;;23.40;99.90;;;;;;5039545;28;20021;-80
2022/09/16 02:20:48;;;;;;;30.40;7.88;;;23.40;99.90;;;;;;5040619;28;20040;-80
2022/09/16 02:23:28;;;;;;;26.42;8.07;;;23.40;99.90;;;;;;5025840;28;20029;-80
2022/09/16 02:26:04;;;;;;;27.98;7.03;;;23.40;99.90;;;;;;5043441;28;20026;-80
2022/09/16 02:29:22;;;;;;;38.58;8.63;;;23.50;99.90;;;;;;5043267;28;20033;-80
2022/09/16 02:35:20;;;;;;;33.08;7.85;;;23.40;99.90;;;;;;4961149;28;20729;-80
2022/09/16 02:38:03;;;;;;;27.38;7.28;;;23.50;99.90;;;;;;4947162;28;20035;-80
2022/09/16 02:40:36;;;;;;;31.20;8.30;;;23.50;99.90;;;;;;4945043;29;20051;-79
2022/09/16 02:43:05;;;;;;;21.83;7.07;;;23.50;99.90;;;;;;4998414;28;20033;-80
2022/09/16 02:46:27;;;;;;;29.23;7.93;;;23.50;99.90;;;;;;5031472;28;20029;-80
2022/09/16 02:49:13;;;;;;;22.87;7.93;;;23.60;99.90;;;;;;5009501;28;20167;-80
2022/09/16 02:52:15;;;;;;;28.10;7.03;;;23.50;99.90;;;;;;5038135;28;20052;-81
2022/09/16 02:55:18;;;;;;;26.85;7.55;;;23.50;99.90;;;;;;5045032;28;20025;-80
2022/09/16 03:01:05;;;;;;;29.73;6.53;;;23.50;99.90;;;;;;5017403;28;20517;-80
2022/09/16 03:31:28;;;;;;;34.65;8.18;;;23.70;99.90;;;;;;4862151;29;20071;-80
2022/09/16 03:41:34;;;;;;;25.00;6.57;;;23.80;99.90;;;;;;4837210;29;20026;-81
2022/09/16 03:44:03;;;;;;;31.67;7.75;;;23.70;99.90;;;;;;4876035;28;20046;-80
2022/09/16 03:46:29;;;;;;;29.88;7.40;;;23.60;99.90;;;;;;5033302;28;20026;-80
2022/09/16 03:49:04;;;;;;;28.55;9.05;;;23.70;99.90;;;;;;5035378;28;20087;-80
2022/09/16 03:51:30;;;;;;;26.77;6.85;;;23.60;99.90;;;;;;5031969;28;20080;-81
2022/09/16 03:53:56;;;;;;;27.55;7.32;;;23.60;99.90;;;;;;5033762;28;22319;-80
2022/09/16 03:56:35;;;;;;;24.90;7.05;;;23.50;99.90;;;;;;5017091;28;20095;-80
2022/09/16 03:59:01;;;;;;;27.35;7.10;;;23.50;99.90;;;;;;5033030;28;20033;-80
2022/09/16 04:01:32;;;;;;;26.58;6.65;;;23.60;99.90;;;;;;5035799;28;20025;-80
2022/09/16 04:04:11;;;;;;;31.23;9.60;;;23.50;99.90;;;;;;5033137;28;20044;-80
2022/09/16 04:07:46;;;;;;;35.85;8.00;;;23.50;99.90;;;;;;5040444;28;20351;-81
2022/09/16 04:10:55;;;;;;;24.40;7.70;;;23.50;99.90;;;;;;4963302;29;20028;-80
2022/09/16 04:13:37;;;;;;;32.38;7.80;;;23.50;99.90;;;;;;4942727;29;20059;-81
2022/09/16 04:16:31;;;;;;;24.33;7.25;;;23.50;99.90;;;;;;4929851;29;20098;-79
2022/09/16 04:20:07;;;;;;;39.58;8.35;;;23.50;99.90;;;;;;5022753;28;20530;-80
2022/09/16 04:23:07;;;;;;;35.85;9.18;;;23.50;99.90;;;;;;4885908;29;20048;-81
2022/09/16 04:25:44;;;;;;;30.85;7.80;;;23.50;99.90;;;;;;4914932;28;20043;-80
2022/09/16 04:28:10;;;;;;;28.90;8.65;;;23.40;99.90;;;;;;5034736;28;20032;-80
2022/09/16 04:30:40;;;;;;;28.67;6.95;;;23.40;99.90;;;;;;5011597;28;20470;-82
2022/09/16 04:33:15;;;;;;;27.13;7.63;;;23.40;99.90;;;;;;5031172;28;20080;-80
2022/09/16 04:35:41;;;;;;;22.25;6.75;;;23.40;99.90;;;;;;5019028;28;20045;-80
2022/09/16 04:38:13;;;;;;;35.35;9.05;;;23.50;99.90;;;;;;5035615;28;20097;-80
2022/09/16 04:40:50;;;;;;;33.53;7.82;;;23.50;99.90;;;;;;5019110;28;20105;-82
2022/09/16 04:57:28;;;;;;;34.55;8.88;;;23.40;99.90;;;;;;4878607;29;20021;-80
2022/09/16 05:07:28;;;;;;;30.10;9.13;;;23.40;99.90;;;;;;4984874;28;20045;-80
2022/09/16 05:13:59;;;;;;;36.08;9.60;;;23.40;99.90;;;;;;4920031;29;20043;-80
2022/09/16 05:17:20;;;;;;;26.88;7.63;;;23.40;99.90;;;;;;4946704;28;20086;-81
2022/09/16 05:23:02;;;;;;;39.07;8.70;;;23.40;99.90;;;;;;5019798;28;20571;-81
2022/09/16 05:28:57;;;;;;;34.90;8.50;;;23.40;99.90;;;;;;4992148;28;20058;-82
2022/09/16 05:35:04;;;;;;;28.75;7.90;;;23.60;99.90;;;;;;4985518;28;20070;-82
2022/09/16 05:41:26;;;;;;;34.53;8.30;;;23.60;99.90;;;;;;4987635;28;20041;-81
2022/09/16 05:47:12;;;;;;;31.58;8.40;;;23.50;99.90;;;;;;5061525;28;20057;-82
2022/09/16 05:54:05;;;;;;;34.65;8.43;;;23.70;99.90;;;;;;4957029;28;20056;-81
2022/09/16 05:59:26;;;;;;;;;;;23.80;99.90;;;;;;4978985;28;20226;-82
2022/09/16 06:01:52;;;;;;;;;;;23.70;99.90;;;;;;5042681;28;20003;-81
2022/09/16 06:04:34;;;;;;;;;;;23.70;99.90;;;;;;5055664;28;19916;-82
2022/09/16 06:10:21;;;;;;;;;;;23.80;99.90;;;;;;4996143;28;19992;-82
2022/09/16 06:12:47;;;;;;;;;;;23.70;99.90;;;;;;5023835;28;19945;-82
2022/09/16 06:15:12;;;;;;;;;;;23.80;99.90;;;;;;5032071;28;19986;-75
2022/09/16 06:17:38;;;;;;;;;;;23.80;99.90;;;;;;5034842;28;19972;-74
2022/09/16 06:20:05;;;;;;;;;;;23.70;99.90;;;;;;5031779;28;19941;-74
2022/09/16 06:22:30;;;;;;;;;;;23.70;99.90;;;;;;5032557;28;19905;-75
2022/09/16 06:24:56;;;;;;;;;;;23.70;99.90;;;;;;5032261;28;19916;-75
2022/09/16 06:27:22;;;;;;;;;;;23.70;99.90;;;;;;5042108;28;19913;-77
2022/09/16 06:29:48;;;;;;;;;;;23.80;99.90;;;;;;5035838;28;19916;-76
2022/09/16 06:32:14;;;;;;;;;;;23.80;99.90;;;;;;5022162;28;19912;-76
2022/09/16 06:34:39;;;;;;;;;;;23.80;99.90;;;;;;5043514;28;19908;-76
2022/09/16 06:37:05;;;;;;;;;;;23.90;99.90;;;;;;5043098;28;19916;-76
2022/09/16 06:39:31;;;;;;;;;;;24.00;99.90;;;;;;5033285;28;20278;-76
2022/09/16 06:41:56;;;;;;;;;;;24.10;99.90;;;;;;5041662;28;20277;-76
2022/09/16 06:44:22;;;;;;;;;;;24.10;99.90;;;;;;5036298;28;19971;-76
2022/09/16 06:46:48;;;;;;;;;;;24.20;99.90;;;;;;5032937;28;19909;-76
2022/09/16 06:49:13;;;;;;;;;;;24.20;99.90;;;;;;5009936;28;19909;-76
2022/09/16 06:51:39;;;;;;;;;;;24.30;99.90;;;;;;5024331;28;19917;-76
2022/09/16 06:54:05;;;;;;;;;;;24.40;99.90;;;;;;5028335;28;19999;-76
2022/09/16 06:56:34;;;;;;;;;;;24.50;99.90;;;;;;5025228;28;19930;-76
2022/09/16 06:59:00;;;;;;;;;;;24.60;99.90;;;;;;5029588;28;20637;-76
2022/09/16 07:01:27;;;;;;;;;;;24.50;99.90;;;;;;5049634;28;19905;-76
2022/09/16 07:03:53;;;;;;;;;;;24.60;99.90;;;;;;5040279;28;19913;-76
2022/09/16 07:06:20;;;;;;;;;;;24.50;99.90;;;;;;5029600;28;19955;-76
2022/09/16 07:08:46;;;;;;;;;;;24.60;99.90;;;;;;5034382;28;20389;-77
2022/09/16 07:11:19;;;;;;;;;;;24.50;99.90;;;;;;5028310;28;19909;-76
2022/09/16 07:13:46;;;;;;;;;;;24.50;99.90;;;;;;5032366;28;19909;-76
2022/09/16 07:16:13;;;;;;;;;;;24.40;99.90;;;;;;5027180;28;19936;-77
2022/09/16 07:18:39;;;;;;;;;;;24.40;99.90;;;;;;5041713;28;19919;-76
2022/09/16 07:21:07;;;;;;;;;;;24.40;99.90;;;;;;5045587;28;19923;-76
2022/09/16 07:23:33;;;;;;;;;;;24.30;99.90;;;;;;5034610;28;20405;-79
2022/09/16 07:26:00;;;;;;;;;;;24.40;99.90;;;;;;5030548;28;19984;-75
2022/09/16 07:28:28;;;;;;;;;;;24.30;99.90;;;;;;5029883;28;19955;-76
2022/09/16 07:30:54;;;;;;;;;;;24.20;99.90;;;;;;5032392;28;19953;-76
2022/09/16 07:33:23;;;;;;;;;;;24.20;99.90;;;;;;5039416;28;19931;-76
2022/09/16 07:35:49;;;;;;;;;;;24.30;99.90;;;;;;5045293;28;19930;-77
2022/09/16 07:38:15;;;;;;;;;;;24.20;99.90;;;;;;5016776;28;19984;-76
2022/09/16 07:40:43;;;;;;;;;;;24.30;99.90;;;;;;5048617;28;19919;-77
2022/09/16 07:43:09;;;;;;;;;;;24.30;99.90;;;;;;5033672;28;19913;-77
2022/09/16 07:45:37;;;;;;;;;;;24.40;99.90;;;;;;5032750;28;20374;-77
2022/09/16 07:48:03;;;;;;;;;;;24.40;99.90;;;;;;5032281;28;19908;-76
2022/09/16 07:50:29;;;;;;;;;;;24.40;99.90;;;;;;5032227;28;19905;-77
2022/09/16 07:53:28;;;;;;;;;;;24.40;99.90;;;;;;5015156;28;20026;-78
2022/09/16 07:55:54;;;;;;;;;;;24.40;99.90;;;;;;5031843;28;19909;-77
2022/09/16 07:58:20;;;;;;;;;;;24.50;99.90;;;;;;5032602;28;19916;-76
2022/09/16 08:00:50;;;;;;;;;;;24.60;99.90;;;;;;5042934;28;19913;-77
2022/09/16 08:03:16;;;;;;;;;;;24.60;99.90;;;;;;5037028;28;19913;-77
2022/09/16 08:05:42;;;;;;;;;;;24.60;99.90;;;;;;5025691;28;19908;-78
2022/09/16 08:08:08;;;;;;;;;;;24.60;99.90;;;;;;5019492;28;19905;-77
2022/09/16 08:13:40;;;;;;;;;;;24.60;99.90;;;;;;5008426;28;19917;-76
2022/09/16 08:19:11;;;;;;;;;;;24.90;99.90;;;;;;4952420;29;19917;-77
2022/09/16 08:21:37;;;;;;;;;;;25.10;99.90;;;;;;5030354;28;20355;-76
2022/09/16 08:24:03;;;;;;;;;;;25.30;99.90;;;;;;5032892;28;20023;-78
2022/09/16 08:26:29;;;;;;;;;;;25.40;99.90;;;;;;5032874;28;19908;-76
2022/09/16 08:28:55;;;;;;;;;;;25.40;99.90;;;;;;5013142;28;20072;-76
2022/09/16 08:31:27;;;;;;;;;;;25.40;99.90;;;;;;5037274;28;19952;-76
2022/09/16 08:33:52;;;;;;;;;;;25.50;99.90;;;;;;5044922;28;20267;-76
2022/09/16 08:36:22;;;;;;;;;;;25.50;99.90;;;;;;5028887;28;19959;-76
2022/09/16 08:38:49;;;;;;;;;;;25.30;99.90;;;;;;5026356;28;19948;-76
2022/09/16 08:41:23;;;;;;;;;;;25.30;99.90;;;;;;5028318;28;19913;-76
2022/09/16 08:43:51;;;;;;;;;;;25.20;99.90;;;;;;5052055;28;20002;-76
2022/09/16 08:46:20;;;;;;;;;;;25.00;99.90;;;;;;5037107;28;19905;-76
2022/09/16 08:48:57;;;;;;;;;;;24.90;99.90;;;;;;5018879;28;19936;-76
2022/09/16 08:51:23;;;;;;;;;;;25.00;99.90;;;;;;5036552;28;19916;-77
2022/09/16 08:54:05;;;;;;;;;;;25.00;99.90;;;;;;5038150;28;19905;-76
2022/09/16 08:56:35;;;;;;;;;;;25.00;99.90;;;;;;5050611;28;20106;-76
2022/09/16 08:59:03;;;;;;;;;;;25.20;99.90;;;;;;5043657;28;20366;-76
2022/09/16 09:01:33;;;;;;;;;;;25.30;99.90;;;;;;5041345;28;20000;-77
2022/09/16 09:03:59;;;;;;;;;;;25.50;99.90;;;;;;5039048;28;19977;-76
2022/09/16 09:06:46;;;;;;;;;;;25.60;99.90;;;;;;5047417;28;20293;-77
2022/09/16 09:09:18;;;;;;;;;;;25.50;99.90;;;;;;5037575;28;20359;-77
2022/09/16 09:11:43;;;;;;;;;;;25.00;99.90;;;;;;5018538;28;19944;-77
2022/09/16 09:14:09;;;;;;;;;;;24.70;99.90;;;;;;5037205;28;20256;-76
2022/09/16 09:16:53;;;;;;;;;;;24.30;99.90;;;;;;5043369;28;19936;-77
2022/09/16 09:19:37;;;;;;;;;;;24.00;99.90;;;;;;5029868;28;19908;-76
2022/09/16 09:22:22;;;;;;;;;;;23.70;99.90;;;;;;5036427;28;19909;-78
2022/09/16 09:25:06;;;;;;;;;;;23.60;99.90;;;;;;5017594;28;19980;-77
2022/09/16 09:27:32;;;;;;;;;;;23.40;99.90;;;;;;5013984;28;20284;-73
2022/09/16 09:30:03;;;;;;;;;;;23.20;99.90;;;;;;5035405;28;19916;-77
2022/09/16 09:32:48;;;;;;;;;;;23.20;99.90;;;;;;5013060;28;20366;-75
2022/09/16 09:35:14;;;;;;;;;;;23.30;99.90;;;;;;5018106;28;19932;-75
2022/09/16 09:37:58;;;;;;;;;;;23.40;99.90;;;;;;5018101;28;19999;-75
2022/09/16 09:40:42;;;;;;;;;;;23.50;99.90;;;;;;5029391;28;19905;-74
2022/09/16 09:43:16;;;;;;;;;;;23.70;99.90;;;;;;5035108;28;19925;-76
2022/09/16 09:45:48;;;;;;;;;;;24.00;99.90;;;;;;5035209;28;19905;-75
2022/09/16 09:48:14;;;;;;;;;;;24.20;99.90;;;;;;5016387;28;19940;-75
2022/09/16 09:50:50;;;;;;;;;;;24.50;99.90;;;;;;5035927;28;20375;-75
2022/09/16 09:53:51;;;;;;;;;;;24.50;99.90;;;;;;5037264;28;19912;-74
2022/09/16 09:56:25;;;;;;;;;;;24.60;99.90;;;;;;5019833;28;19925;-76
2022/09/16 09:59:04;;;;;;;;;;;24.40;99.90;;;;;;5035843;28;19936;-74
2022/09/16 10:01:30;;;;;;;;;;;24.20;99.90;;;;;;5035852;28;19909;-75
2022/09/16 10:03:59;;;;;;;;;;;24.10;99.90;;;;;;5036359;28;19916;-75
2022/09/16 10:06:29;;;;;;;;;;;24.00;99.90;;;;;;5037763;28;19928;-75
2022/09/16 10:08:58;;;;;;;;;;;24.10;99.90;;;;;;5037957;28;19927;-75
2022/09/16 10:11:25;;;;;;;;;;;24.20;99.90;;;;;;5036178;28;19959;-75
2022/09/16 10:13:53;;;;;;;;;;;24.40;99.90;;;;;;5036496;28;19944;-75
2022/09/16 10:16:20;;;;;;;;;;;24.60;99.90;;;;;;5037185;28;19975;-76
2022/09/16 10:19:21;;;;;;;;;;;24.70;99.90;;;;;;5037709;28;19905;-75
2022/09/16 10:21:49;;;;;;;;;;;24.80;99.90;;;;;;4956364;28;19921;-75
2022/09/16 10:24:53;;;;;;;;;;;24.70;99.90;;;;;;5021638;28;19909;-74
2022/09/16 10:27:50;;;;;;;;;;;24.40;99.90;;;;;;4979099;28;19948;-75
2022/09/16 10:33:52;;;;;;;;;;;23.80;99.90;;;;;;4991602;28;20425;-75
2022/09/16 10:36:50;;;;;;;;;;;23.60;99.90;;;;;;5036087;28;19905;-74
2022/09/16 10:45:39;;;;;;;;;;;23.40;99.90;;;;;;5035332;28;19951;-74
2022/09/16 10:48:13;;;;;;;;;;;23.50;99.90;;;;;;5041965;28;19915;-74
2022/09/16 10:50:38;;;;;;;;;;;23.70;99.90;;;;;;5040038;28;19959;-74
2022/09/16 10:53:25;;;;;;;;;;;23.80;99.90;;;;;;5017680;28;19909;-74
2022/09/16 10:56:22;;;;;;;;;;;23.60;99.90;;;;;;5018852;28;19986;-75
2022/09/16 11:02:03;;;;;;;;;;;23.50;99.90;;;;;;5029593;28;20023;-74
2022/09/16 11:04:41;;;;;;;;;;;23.30;99.90;;;;;;5032819;28;19982;-73
2022/09/16 11:07:36;;;;;;;;;;;23.10;99.90;;;;;;5037413;28;19909;-74
2022/09/16 11:10:22;;;;;;;;;;;23.10;99.90;;;;;;5033632;28;19913;-74
2022/09/16 11:13:06;;;;;;;;;;;23.20;99.90;;;;;;5034720;28;19905;-74
2022/09/16 11:15:50;;;;;;;;;;;23.20;99.90;;;;;;5034616;28;20409;-73
2022/09/16 11:27:38;;;;;;;;;;;24.20;99.90;;;;;;5032229;28;19932;-74
2022/09/16 11:30:07;;;;;;;;;;;24.40;99.90;;;;;;5018544;28;20000;-74
2022/09/16 11:32:51;;;;;;;;;;;24.60;99.90;;;;;;5036194;28;19945;-75
2022/09/16 11:35:38;;;;;;;;;;;24.60;99.90;;;;;;5036864;28;19966;-75
2022/09/16 11:38:07;;;;;;;;;;;24.80;99.90;;;;;;5016589;28;20438;-74
2022/09/16 11:40:51;;;;;;;;;;;24.80;99.90;;;;;;5038583;28;19919;-74
2022/09/16 11:43:40;;;;;;;;;;;24.90;99.90;;;;;;5032106;28;19931;-74
2022/09/16 11:46:22;;;;;;;;;;;25.00;99.90;;;;;;5019215;28;19913;-74
2022/09/16 11:51:54;;;;;;;;;;;25.40;99.90;;;;;;5026787;28;19908;-74
2022/09/16 11:54:32;;;;;;;;;;;25.40;99.90;;;;;;5019095;28;19912;-74
2022/09/16 11:57:03;;;;;;;;;;;25.40;99.90;;;;;;5040535;28;19913;-73
2022/09/16 11:59:36;;;;;;;;;;;25.30;99.90;;;;;;5034442;28;19916;-73
2022/09/16 12:02:21;;;;;;;;;;;25.30;99.90;;;;;;5036251;28;19908;-76
2022/09/16 12:04:56;;;;;;;;;;;25.20;99.90;;;;;;4995693;28;19917;-75
2022/09/16 12:07:26;;;;;;;;;;;25.40;99.90;;;;;;5026531;28;19974;-74
2022/09/16 12:10:03;;;;;;;;;;;25.50;99.90;;;;;;5029286;28;19919;-74
2022/09/16 12:12:36;;;;;;;;;;;25.60;99.90;;;;;;5031159;28;20004;-74
2022/09/16 12:15:06;;;;;;;;;;;25.60;99.90;;;;;;5034895;28;19980;-74
2022/09/16 12:17:35;;;;;;;;;;;25.80;99.90;;;;;;5031846;28;19909;-75
2022/09/16 12:20:32;;;;;;;;;;;26.10;99.90;;;;;;5022277;28;20127;-74
2022/09/16 12:23:20;;;;;;;;;;;26.10;99.90;;;;;;5053633;28;20525;-74
2022/09/16 12:25:55;;;;;;;;;;;26.10;99.90;;;;;;5040159;28;19917;-73
2022/09/16 12:28:43;;;;;;;;;;;;;;;;;;;;;
2022/09/16 12:31:47;;;;;;;;;;;25.80;99.90;;;;;;5031472;28;19998;-74
2022/09/16 12:37:35;;;;;;;;;;;25.90;99.90;;;;;;5034819;28;19916;-74
2022/09/16 12:40:35;;;;;;;;;;;26.00;99.90;;;;;;5038427;28;19924;-75
2022/09/16 12:43:22;;;;;;;;;;;26.00;99.90;;;;;;5021191;28;20323;-74
2022/09/16 12:46:18;;;;;;;;;;;;;;;;;;;;;
2022/09/16 12:49:03;;;;;;;;;;;26.40;99.90;;;;;;5035942;28;19967;-74
2022/09/16 12:54:51;;;;;;;;;;;26.80;99.90;;;;;;5039028;28;19920;-74
2022/09/16 12:57:35;;;;;;;;;;;26.80;99.90;;;;;;5015682;28;20272;-75
2022/09/16 13:00:20;;;;;;;;;;;;;;;;;;;;;
2022/09/16 13:03:05;;;;;;;;;;;26.70;99.90;;;;;;5037192;28;20002;-75
2022/09/16 13:05:32;;;;;;;;;;;26.70;99.90;;;;;;5025726;28;19905;-75
2022/09/16 13:08:11;;;;;;;;;;;;;;;;;;;;;
2022/09/16 13:10:39;;;;;;;;;;;26.10;99.90;;;;;;5014917;28;19991;-75
2022/09/16 13:13:06;;;;;;;;;;;26.00;99.90;;;;;;5028607;28;20039;-74
2022/09/16 13:15:54;;;;;;;;;;;25.90;99.90;;;;;;5033429;28;19909;-74
2022/09/16 13:19:12;;;;;;;;;;;26.00;99.90;;;;;;5035998;28;19909;-74
2022/09/16 13:21:46;;;;;;;;;;;25.90;99.90;;;;;;5031139;28;19920;-74
2022/09/16 13:24:41;;;;;;;;;;;25.70;99.90;;;;;;5020163;28;19956;-75
2022/09/16 13:33:49;;;;;;;;;;;;;;;;;;;;;
2022/09/16 13:36:53;;;;;;;;;;;25.60;99.90;;;;;;5038215;28;19982;-75
2022/09/16 13:48:18;;;;;;;;;;;26.20;99.90;;;;;;5041647;28;20046;-75
2022/09/16 14:00:45;;;;;;;;;;;26.40;99.90;;;;;;4935007;29;19930;-76
2022/09/16 14:03:49;;;;;;;;;;;;;;;;;;;;;
2022/09/16 14:10:12;;;;;;;;;;;26.90;99.90;;;;;;4902543;29;19990;-76
2022/09/16 14:13:03;;;;;;;;;;;27.00;99.90;;;;;;4950987;28;19910;-74
2022/09/16 14:15:36;;;;;;;;;;;26.90;99.90;;;;;;4989635;28;20004;-75
2022/09/16 14:18:02;;;;;;;;;;;26.90;99.90;;;;;;5039361;28;19916;-75
2022/09/16 14:20:28;;;;;;;;;;;26.90;99.90;;;;;;5036288;28;20444;-75
2022/09/16 14:23:01;;;;;;;;;;;26.90;99.90;;;;;;5037080;28;20037;-75
2022/09/16 14:25:29;;;;;;;;;;;27.00;99.90;;;;;;5032750;28;19985;-76
2022/09/16 14:28:20;;;;;;;;;;;;;;;;;;;;;
2022/09/16 14:31:01;;;;;;;;;;;26.60;99.90;;;;;;5033311;28;19987;-76
2022/09/16 14:33:39;;;;;;;;;;;26.50;99.90;;;;;;5033727;28;19956;-77
2022/09/16 14:36:13;;;;;;;;;;;26.30;99.90;;;;;;5030782;28;19915;-76
2022/09/16 14:39:09;;;;;;;;;;;26.00;99.90;;;;;;5016641;28;19909;-77
2022/09/16 14:41:36;;;;;;;;;;;26.00;99.90;;;;;;5013851;28;19909;-76
2022/09/16 14:44:30;;;;;;;;;;;26.00;99.90;;;;;;5035260;28;19982;-77
2022/09/16 14:47:17;;;;;;;;;;;26.00;99.90;;;;;;5034981;28;20526;-76
2022/09/16 14:49:46;;;;;;;;;;;25.90;99.90;;;;;;5032409;28;19913;-76
2022/09/16 14:52:23;;;;;;;;;;;25.60;99.90;;;;;;5035370;28;19912;-76
2022/09/16 14:54:49;;;;;;;;;;;25.30;99.90;;;;;;5035435;28;19931;-78
2022/09/16 15:00:21;;;;;;;;;;;24.90;99.90;;;;;;5035353;28;19963;-76
2022/09/16 15:03:24;;;;;;;;;;;;;;;;;;;;;
2022/09/16 15:05:54;;;;;;;;;;;24.40;99.90;;;;;;5030079;28;19916;-74
2022/09/16 15:08:37;;;;;;;;;;;24.20;99.90;;;;;;5033228;28;20357;-75
2022/09/16 15:11:11;;;;;;;;;;;24.00;99.90;;;;;;5017292;28;19951;-74
2022/09/16 15:16:25;;;;;;;;;;;23.80;99.90;;;;;;5014629;28;20369;-75
2022/09/16 15:18:54;;;;;;;;;;;23.70;99.90;;;;;;5032376;28;19980;-74
2022/09/16 15:21:26;;;;;;;;;;;23.60;99.90;;;;;;5034266;28;19909;-75
2022/09/16 15:23:55;;;;;;;;;;;23.70;99.90;;;;;;5031531;28;19912;-76
2022/09/16 15:26:40;;;;;;;;;;;23.70;99.90;;;;;;5033520;28;20358;-75
2022/09/16 15:29:26;;;;;;;;;;;23.60;99.90;;;;;;5031273;28;20381;-75
2022/09/16 15:31:52;;;;;;;;;;;23.60;99.90;;;;;;5031043;28;19999;-75
2022/09/16 15:34:19;;;;;;;;;;;23.50;99.90;;;;;;5033527;28;19959;-75
2022/09/16 15:36:45;;;;;;;;;;;23.50;99.90;;;;;;5041573;28;19912;-76
2022/09/16 15:39:25;;;;;;;;;;;23.50;99.90;;;;;;5044582;28;19916;-75
2022/09/16 15:42:09;;;;;;;;;;;23.50;99.90;;;;;;5033218;28;19955;-75
2022/09/16 15:44:35;;;;;;;;;;;23.50;99.90;;;;;;5016038;28;20000;-75
2022/09/16 15:47:04;;;;;;;;;;;23.60;99.90;;;;;;5033523;28;19917;-74
2022/09/16 15:49:31;;;;;;;;;;;23.60;99.90;;;;;;5034338;28;19909;-74
2022/09/16 15:52:09;;;;;;;;;;;23.60;99.90;;;;;;5033789;28;19909;-75
2022/09/16 15:54:47;;;;;;;;;;;23.40;99.90;;;;;;5032780;28;19944;-75
2022/09/16 15:57:29;;;;;;;;;;;23.40;99.90;;;;;;5029055;28;20396;-75
2022/09/16 16:00:15;;;;;;;;;;;23.50;99.90;;;;;;5013510;28;20004;-74
2022/09/16 16:02:48;;;;;;;;;;;23.30;99.90;;;;;;5032143;28;19909;-75
2022/09/16 16:05:13;;;;;;;;;;;23.40;99.90;;;;;;5034056;28;20293;-74
2022/09/16 16:07:52;;;;;;;;;;;23.40;99.90;;;;;;5028825;28;19909;-75
2022/09/16 16:10:23;;;;;;;;;;;23.50;99.90;;;;;;5012586;28;19909;-75
2022/09/16 16:13:05;;;;;;;;;;;23.30;99.90;;;;;;5032805;28;20381;-75
2022/09/16 16:16:04;;;;;;;;;;;;;;;;;;;;;
2022/09/16 16:18:40;;;;;;;;;;;23.00;99.90;;;;;;5021770;28;19996;-75
2022/09/16 16:21:07;;;;;;;;;;;22.80;99.90;;;;;;5032844;28;19915;-75
2022/09/16 16:23:37;;;;;;;;;;;22.70;99.90;;;;;;5011061;28;19916;-75
2022/09/16 16:26:03;;;;;;;;;;;22.70;99.90;;;;;;5028274;28;19916;-75
2022/09/16 16:28:29;;;;;;;;;;;22.70;99.90;;;;;;5032264;28;19932;-79
2022/09/16 16:31:06;;;;;;;;;;;22.70;99.90;;;;;;5033852;28;19912;-79
2022/09/16 16:33:32;;;;;;;;;;;22.90;99.90;;;;;;5030982;28;19909;-74
2022/09/16 16:35:58;;;;;;;;;;;22.90;99.90;;;;;;5031550;28;19916;-76
2022/09/16 16:38:24;;;;;;;;;;;22.70;99.90;;;;;;5030839;28;20007;-74
2022/09/16 16:40:56;;;;;;;;;;;22.60;99.90;;;;;;5050516;28;19951;-77
2022/09/16 16:43:27;;;;;;;;;;;22.40;99.90;;;;;;5039289;28;20382;-74
2022/09/16 16:49:00;;;;;;;;;;;22.30;99.90;;;;;;5013448;28;19910;-75
2022/09/16 16:51:42;;;;;;;;;;;22.30;99.90;;;;;;5012898;28;19920;-75
2022/09/16 16:54:09;;;;;;;;;;;22.10;99.90;;;;;;5030094;28;19915;-75
2022/09/16 17:02:53;;;;;;;;;;;21.70;99.90;;;;;;4953898;28;19990;-75
2022/09/16 17:05:43;;;;;;;;;;;21.70;99.90;;;;;;5026219;28;19960;-74
2022/09/16 17:23:28;;;;;;;;;;;21.50;99.90;;;;;;5036579;28;19959;-75
2022/09/16 17:26:25;;;;;;;;;;;21.50;99.90;;;;;;5038092;28;19909;-75
2022/09/16 17:29:04;;;;;;;;;;;;;;;;;;;;;
2022/09/16 17:31:31;;;;;;;;;;;21.80;99.90;;;;;;5030608;28;19915;-75
2022/09/16 17:34:04;;;;;;;;;;;21.90;99.90;;;;;;5036086;28;19951;-75
2022/09/16 17:40:08;;;;;;;;;;;22.00;99.90;;;;;;4992222;28;20007;-75
2022/09/16 17:42:39;;;;;;;;;;;21.70;99.90;;;;;;4970252;28;19977;-75
2022/09/16 17:45:26;;;;;;;;;;;21.60;99.90;;;;;;4980943;28;19960;-75
2022/09/16 17:48:01;;;;;;;;;;;21.60;99.90;;;;;;4981389;28;19914;-75
2022/09/16 17:50:27;;;;;;;;;;;21.60;99.90;;;;;;4996725;28;20292;-78
2022/09/16 17:52:53;;;;;;;;;;;21.80;99.90;;;;;;5035164;28;20387;-75
2022/09/16 17:55:19;;;;;;;;;;;21.90;99.90;;;;;;5035869;28;19909;-76
2022/09/16 17:57:44;;;;;;;;;;;21.70;99.90;;;;;;5049384;28;19908;-75
2022/09/16 18:00:14;;;;;;;;;;;21.70;99.90;;;;;;5046757;28;19909;-75
2022/09/16 18:02:45;;;;;;;;;;;21.80;99.90;;;;;;5033472;28;19948;-75
2022/09/16 18:05:23;;;;;;;;;;;21.80;99.90;;;;;;5034961;28;19909;-75
2022/09/16 18:08:13;;;;;;;;;;;21.30;99.90;;;;;;5032628;28;19991;-75
2022/09/16 18:10:39;;;;;;;;;;;20.80;99.90;;;;;;5035891;28;19928;-76
2022/09/16 18:13:04;;;;;;;;;;;20.70;99.90;;;;;;5034449;28;19913;-75
2022/09/16 18:22:10;;;;;;;;;;;20.90;99.90;;;;;;5003525;28;19956;-79
2022/09/16 18:24:49;;;;;;;;;;;21.00;99.90;;;;;;4994431;28;19921;-79
2022/09/16 18:27:18;;;;;;;;;;;20.90;99.90;;;;;;4995457;28;19909;-80
2022/09/16 18:29:44;;;;;;;;;;;20.70;99.90;;;;;;5018733;28;20286;-79
2022/09/16 18:32:09;;;;;;;;;;;20.20;99.90;;;;;;5045456;28;19928;-80
2022/09/16 18:34:35;;;;;;;;;;;19.80;99.90;;;;;;5023257;28;19978;-79
2022/09/16 18:37:01;;;;;;;;;;;18.70;99.90;;;;;;5035819;28;20248;-78
2022/09/16 18:39:27;;;;;;;;;;;18.10;99.90;;;;;;5034500;28;19916;-79
2022/09/16 18:41:52;;;;;;;;;;;17.80;99.90;;;;;;5047529;28;19905;-79
2022/09/16 18:44:19;;;;;;;;;;;17.50;99.90;;;;;;5046382;28;19959;-79
2022/09/16 18:46:45;;;;;;;;;;;17.40;99.90;;;;;;5037465;28;19913;-79